Terminal Aerodrome Forecast
Issued by NWS

Home | Current Version | Previous Version | Graphics & Text | Print | Product List | Glossary On
Versions: 1 2 3 4 5 6 7 8 9 10 11 12 13 14 15 16 17 18 19
556
FTUS43 KICT 142326
TAFCNU
TAF
KCNU 142326Z 1500/1524 VRB03KT 6SM -FZRA OVC015
      TEMPO 1500/1502 4SM -FZRA OVC011
     FM150200 04004KT 3SM FZRA OVC015
     FM150500 05005KT 2SM -FZRA OVC008
     FM150900 04005KT 3SM FZRA OVC003
     FM151500 06005KT 3SM -RA OVC003
     FM151800 06005KT 4SM BR OVC005=

USA.gov is the U.S. government's official web portal to all federal, state and local government web resources and services.